• Join FlightAware (Why Join?)
  • Login
  • US Flag 
03:46AM EDT


 

Airport Tracker/Info


-or-


 

Live Flight TrackerFlight Track Log ✈ EGF4174 ✈ 19-Apr-2013 ✈ KSYR - KORD

Flight Track Log - Related Links

Times and Time Zones

All times are in EDT time to prevent confusion due to time zone crossing. See the EGF4174 flight status page for this flight to view local times or setup timezone preferences in your user account.

Time Position Orientation Groundspeed Altitude Reporting Facility
EDT Latitude Longitude Course Direction KTS MPH feet Rate Location/Type
06:24PM 43.1097 -76.1319 286° West 136 157 1,200  Level Boston Center
06:25PM 43.1111 -76.1492 276° West 157 181 1,800 1,740 Climbing Boston Center
06:26PM 43.1300 -76.2158 291° West 203 234 3,500 1,620 Climbing Boston Center
06:27PM 43.1833 -76.4229 270° West  Level FlightAware Approximate
06:27PM 43.1917 -76.3569 301° West 234 269 6,500  Level Cleveland Center
06:28PM 43.2040 -76.5280 281° West  Level FlightAware Approximate
06:28PM 43.2017 -76.4561 278° West 246 283 8,500  Level Cleveland Center
06:29PM 43.2222 -76.6425 286° West  Level FlightAware Approximate
06:29PM 43.2197 -76.5544 284° West 262 302 10,600  Level Cleveland Center
06:30PM 43.2464 -76.7551 286° West  Level FlightAware Approximate
06:30PM 43.2358 -76.6619 282° West 273 314 11,500  Level Cleveland Center
06:31PM 43.2542 -76.7747 283° West 297 342 12,400 2,160 Climbing Cleveland Center
06:32PM 43.2744 -76.8875 284° West 305 351 15,900 2,640 Climbing Cleveland Center
06:33PM 43.2900 -76.9808 283° West 288 331 17,700 1,560 Climbing Cleveland Center
06:34PM 43.3011 -77.0772 279° West 268 308 19,100 1,200 Climbing Cleveland Center
06:35PM 43.3083 -77.1794 276° West 268 308 20,100 1,020 Climbing Cleveland Center
06:36PM 43.3075 -77.2908 269° West 273 314 21,200 900 Climbing Cleveland Center
06:37PM 43.3022 -77.3994 266° West 286 329 22,000 360 Climbing Cleveland Center
06:38PM 43.3014 -77.5222 270° West 306 352 22,000  Level Cleveland Center
06:39PM 43.2964 -77.6567 267° West 333 383 22,000  Level Cleveland Center
06:40PM 43.2936 -77.7936 268° West 350 403 22,000  Level Cleveland Center
06:41PM 43.2461 -77.8983 238° Southwest 337 388 22,000  Level Cleveland Center
06:42PM 43.1964 -78.0003 236° Southwest 331 381 22,000  Level Cleveland Center
06:43PM 43.1483 -78.0961 236° Southwest 320 368 22,000  Level Cleveland Center
06:44PM 43.1800 -78.2203 289° West 297 342 22,000  Level Cleveland Center
06:45PM 43.2842 -78.3189 325° Northwest 341 392 22,000  Level Cleveland Center
06:46PM 43.3344 -78.4428 299° West 360 414 22,000  Level Cleveland Center
06:47PM 43.3200 -78.5717 261° West 336 387 22,000  Level Cleveland Center
06:48PM 43.3119 -78.7031 265° West 336 387 22,000  Level Cleveland Center
06:49PM 43.3036 -78.8344 265° West 348 400 22,000  Level Cleveland Center
06:50PM 43.3000 -78.9167 267° West 340 391 22,000  Level Toronto Center
06:51PM 43.2833 -79.0333 259° West 340 391 22,000  Level Toronto Center
06:52PM 43.2833 -79.1833 270° West 330 380 22,000  Level Toronto Center
06:53PM 43.2667 -79.2833 257° West 330 380 22,000  Level Toronto Center
06:54PM 43.2667 -79.4333 270° West 330 380 22,000  Level Toronto Center
06:55PM 43.2667 -79.5333 270° West 340 391 22,000  Level Toronto Center
06:56PM 43.2500 -79.6833 261° West 340 391 22,000  Level Toronto Center
06:57PM 43.2500 -79.8167 270° West 340 391 22,000  Level Toronto Center
06:58PM 43.2333 -79.9333 259° West 330 380 22,000  Level Toronto Center
07:00PM 43.2167 -80.1833 265° West 320 368 22,000  Level Toronto Center
07:01PM 43.2167 -80.3167 270° West 330 380 22,000  Level Toronto Center
07:02PM 43.2167 -80.4333 270° West 330 380 22,000  Level Toronto Center
07:03PM 43.2000 -80.5500 259° West 330 380 22,000  Level Toronto Center
07:04PM 43.2000 -80.6833 270° West 330 380 22,000  Level Toronto Center
07:05PM 43.1833 -80.8000 259° West 330 380 22,000  Level Toronto Center
07:06PM 43.1667 -80.9333 260° West 330 380 22,000  Level Toronto Center
07:07PM 43.1667 -81.0500 270° West 330 380 22,000  Level Toronto Center
07:08PM 43.1500 -81.1833 260° West 330 380 22,000  Level Toronto Center
07:09PM 43.1500 -81.3167 270° West 330 380 22,000  Level Toronto Center
07:10PM 43.1333 -81.4333 259° West 330 380 22,000  Level Toronto Center
07:11PM 43.1333 -81.5667 270° West 340 391 22,000  Level Toronto Center
07:12PM 43.1167 -81.7167 261° West 340 391 22,000  Level Toronto Center
07:13PM 43.1167 -81.8333 270° West 350 403 22,000  Level Toronto Center
07:14PM 43.1000 -81.9667 260° West 350 403 22,000  Level Toronto Center
07:15PM 43.0833 -82.1000 260° West 340 391 22,000  Level Toronto Center
07:16PM 43.0833 -82.2167 270° West 330 380 22,000  Level Toronto Center
07:17PM 43.0667 -82.3333 259° West 320 368 22,000  Level Toronto Center
07:18PM 43.0667 -82.4667 270° West 320 368 22,000  Level Toronto Center
07:19PM 43.0667 -82.5833 270° West 330 380 22,000  Level Toronto Center
07:20PM 43.0333 -82.7167 251° West 340 391 22,000  Level Toronto Center
07:21PM 43.0422 -82.8531 275° West 337 388 22,000  Level Cleveland Center
07:22PM 43.0314 -82.9803 263° West 337 388 22,000  Level Cleveland Center
07:23PM 43.0203 -83.1106 263° West 344 396 22,000  Level Cleveland Center
07:24PM 43.0108 -83.2464 265° West 355 409 22,000  Level Cleveland Center
07:25PM 42.9972 -83.3878 263° West 366 421 22,000  Level Cleveland Center
07:26PM 42.9833 -83.5292 262° West 371 427 22,000  Level Cleveland Center
07:27PM 42.9689 -83.6733 262° West 381 438 22,000  Level Cleveland Center
07:28PM 42.9569 -83.8117 263° West 381 438 22,000  Level Cleveland Center
07:29PM 42.9444 -83.9528 263° West 381 438 22,000  Level Cleveland Center
07:30PM 42.9319 -84.0939 263° West 381 438 22,000  Level Cleveland Center
07:31PM 42.9150 -84.2347 261° West 386 444 22,000  Level Cleveland Center
07:32PM 42.9067 -84.3647 265° West 386 444 22,000  Level Cleveland Center
07:33PM 42.8956 -84.4692 262° West 382 440 22,000  Level Chicago Center
07:34PM 42.8811 -84.6094 262° West 376 433 22,000  Level Chicago Center
07:35PM 42.8644 -84.7775 262° West 375 432 22,000  Level Chicago Center
07:36PM 42.8489 -84.9181 261° West 375 432 22,000  Level Chicago Center
07:37PM 42.8339 -85.0603 262° West 380 437 22,000  Level Chicago Center
07:38PM 42.8175 -85.2039 261° West 383 441 22,000  Level Chicago Center
07:39PM 42.8025 -85.3475 262° West 383 441 22,000 -540 Level Chicago Center
07:40PM 42.7881 -85.4889 262° West 379 436 20,900 -1,020 Descending Chicago Center
07:41PM 42.7639 -85.6244 256° West 369 425 20,000 -480 Descending Chicago Center
07:42PM 42.7394 -85.7606 256° West 368 423 20,000  Level Chicago Center
07:43PM 42.7103 -85.9214 256° West 363 418 20,000  Level Chicago Center
07:44PM 42.6856 -86.0558 256° West 364 419 20,000  Level Chicago Center
07:45PM 42.6611 -86.1906 256° West 365 420 20,000 -300 Level Chicago Center
07:46PM 42.6353 -86.3250 255° West 366 421 19,500 -1,200 Descending Chicago Center
07:47PM 42.6097 -86.4589 256° West 366 421 17,600 -1,860 Descending Chicago Center
07:48PM 42.5853 -86.5914 256° West 364 419 15,800 -1,740 Descending Chicago Center
07:50PM 42.5614 -86.7186 256° West 353 406 14,100 -1,740 Descending Chicago Center
07:51PM 42.5306 -86.8353 250° West 330 380 12,300 -1,860 Descending Chicago Center
07:52PM 42.4964 -86.9608 250° West 300 345 10,300 -1,140 Descending Chicago Center
07:53PM 42.4678 -87.0606 249° West 287 330 10,000 -540 Descending Chicago Center
07:54PM 42.4447 -87.1450 250° West 245 282 9,200 -780 Descending Chicago Center
07:55PM 42.4200 -87.2336 249° West 248 285 8,500 -900 Descending Chicago Center
07:56PM 42.3975 -87.3203 251° West 246 283 7,400 -1,140 Descending Chicago Center
07:57PM 42.3639 -87.4044 242° Southwest 242 278 6,200 -720 Descending Chicago Center
07:58PM 42.2897 -87.3908 172° South 257 296 6,000 -300 Descending Chicago Center
07:59PM 42.2164 -87.3797 174° South 264 304 5,600 -780 Descending Chicago Center
08:00PM 42.1450 -87.3650 171° South 260 299 4,500 -840 Descending Chicago Center
08:01PM 42.0756 -87.3528 173° South 255 293 4,000 -300 Descending Chicago Center
08:02PM 42.0144 -87.3561 182° South 241 277 4,000 60 Level Chicago Center
08:02PM 42.0000 -87.3833 234° Southwest 200 230 4,100 60 Climbing Chicago TRACON
08:03PM 42.0000 -87.4500 270° West 195 224 4,100  Level Chicago TRACON
08:04PM 42.0000 -87.5167 270° West 171 197 4,100  Level Chicago TRACON
08:05PM 42.0000 -87.5833 270° West 166 191 4,100  Level Chicago TRACON
08:06PM 42.0000 -87.6333 270° West 151 174 4,100 -180 Level Chicago TRACON
08:07PM 42.0000 -87.7000 270° West 163 188 3,800 -300 Descending Chicago TRACON